createdAt,value
2018-03-02T00:02:02.595Z,95553.97
2018-03-02T00:04:30.434Z,95559.38
2018-03-02T00:06:58.106Z,95561.81
2018-03-02T00:09:25.665Z,95556.49
2018-03-02T00:11:53.191Z,95560.91
2018-03-02T00:14:20.746Z,95561.45
2018-03-02T00:16:51.302Z,95551.30
2018-03-02T00:19:19.152Z,95547.48
2018-03-02T00:21:46.675Z,95553.83
2018-03-02T00:24:14.200Z,95548.45
2018-03-02T00:26:41.746Z,95549.89
2018-03-02T00:29:09.274Z,95538.73
2018-03-02T00:31:36.984Z,95535.45
2018-03-02T00:34:04.527Z,95529.02
2018-03-02T00:36:32.043Z,95520.23
2018-03-02T00:38:59.593Z,95513.14
2018-03-02T00:41:27.113Z,95520.80
2018-03-02T00:43:54.841Z,95517.99
2018-03-02T00:46:22.359Z,95505.72
2018-03-02T00:48:49.882Z,95514.58
2018-03-02T00:51:17.425Z,95512.14
2018-03-02T00:53:44.947Z,95503.84
2018-03-02T00:56:12.514Z,95497.29
2018-03-02T00:58:40.031Z,95501.20
2018-03-02T01:01:07.554Z,95506.08
2018-03-02T01:03:35.108Z,95496.97
2018-03-02T01:06:02.626Z,95480.39
2018-03-02T01:08:30.610Z,95478.83
2018-03-02T01:10:58.129Z,95479.70
2018-03-02T01:13:25.826Z,95471.59
2018-03-02T01:15:53.374Z,95473.66
2018-03-02T01:18:20.891Z,95471.84
2018-03-02T01:20:48.747Z,95472.12
2018-03-02T01:23:16.258Z,95465.34
2018-03-02T01:25:43.773Z,95462.14
2018-03-02T01:28:11.321Z,95464.47
2018-03-02T01:30:38.849Z,95456.09
2018-03-02T01:33:06.754Z,95455.06
2018-03-02T01:35:34.275Z,95455.43
2018-03-02T01:38:01.803Z,95458.83
2018-03-02T01:40:29.362Z,95455.94
2018-03-02T01:42:56.927Z,95451.55
2018-03-02T01:45:24.653Z,95448.25
2018-03-02T01:47:52.169Z,95443.84
2018-03-02T01:50:19.708Z,95438.13
2018-03-02T01:52:47.257Z,95443.44
2018-03-02T01:55:14.826Z,95441.52
2018-03-02T01:57:42.463Z,95435.37
2018-03-02T02:00:09.976Z,95439.73
2018-03-02T02:02:37.522Z,95430.27
2018-03-02T02:05:05.092Z,95429.85
2018-03-02T02:07:32.627Z,95425.97
2018-03-02T02:10:00.187Z,95426.60
2018-03-02T02:12:28.039Z,95413.61
2018-03-02T02:14:55.561Z,95409.48
2018-03-02T02:17:23.109Z,95405.30
2018-03-02T02:19:50.625Z,95407.48
2018-03-02T02:22:18.489Z,95412.40
2018-03-02T02:24:46.002Z,95416.27
2018-03-02T02:27:13.802Z,95408.00
2018-03-02T02:29:41.771Z,95400.44
2018-03-02T02:32:10.154Z,95393.55
2018-03-02T02:34:37.722Z,95384.86
2018-03-02T02:37:05.257Z,95387.97
2018-03-02T02:39:32.776Z,95386.62
2018-03-02T02:42:00.333Z,95394.02
2018-03-02T02:44:27.860Z,95384.71
2018-03-02T02:46:55.699Z,95396.55
2018-03-02T02:49:23.220Z,95397.77
2018-03-02T02:51:50.740Z,95400.37
2018-03-02T02:54:18.284Z,95393.48
2018-03-02T02:56:45.814Z,95381.71
2018-03-02T02:59:13.405Z,95386.88
2018-03-02T03:01:40.926Z,95391.01
2018-03-02T03:04:08.454Z,95390.59
2018-03-02T03:06:36.006Z,95394.44
2018-03-02T03:09:03.537Z,95397.65
2018-03-02T03:11:31.097Z,95391.19
2018-03-02T03:13:58.622Z,95393.89
2018-03-02T03:16:26.141Z,95379.53
2018-03-02T03:18:53.974Z,95388.30
2018-03-02T03:21:21.747Z,95386.78
2018-03-02T03:23:49.296Z,95388.51
2018-03-02T03:26:16.834Z,95369.59
2018-03-02T03:28:44.361Z,95362.25
2018-03-02T03:31:12.128Z,95366.23
2018-03-02T03:33:39.658Z,95353.36
2018-03-02T03:36:07.290Z,95350.78
2018-03-02T03:38:34.818Z,95359.09
2018-03-02T03:41:02.345Z,95352.81
2018-03-02T03:43:29.896Z,95345.73
2018-03-02T03:45:57.425Z,95337.08
2018-03-02T03:48:25.174Z,95316.17
2018-03-02T03:50:52.828Z,95327.63
2018-03-02T03:53:20.351Z,95320.72
2018-03-02T03:55:47.902Z,95320.11
2018-03-02T03:58:15.424Z,95324.56
2018-03-02T04:00:43.173Z,95322.13
2018-03-02T04:03:10.705Z,95318.14
2018-03-02T04:05:38.223Z,95317.45
2018-03-02T04:08:05.770Z,95316.50
2018-03-02T04:10:33.285Z,95329.42
2018-03-02T04:13:01.193Z,95328.63
2018-03-02T04:15:28.723Z,95320.34
2018-03-02T04:17:56.254Z,95301.83
2018-03-02T04:20:23.797Z,95299.81
2018-03-02T04:22:51.319Z,95301.13
2018-03-02T04:25:18.882Z,95294.40
2018-03-02T04:27:46.397Z,95297.14
2018-03-02T04:30:13.917Z,95282.48
2018-03-02T04:32:41.474Z,95273.59
2018-03-02T04:35:09.063Z,95281.17
2018-03-02T04:37:36.632Z,95282.44
2018-03-02T04:40:04.150Z,95270.07
2018-03-02T04:42:31.670Z,95256.91
2018-03-02T04:44:59.222Z,95261.95
2018-03-02T04:47:26.746Z,95262.63
2018-03-02T04:49:54.458Z,95249.67
2018-03-02T04:52:21.978Z,95252.20
2018-03-02T04:54:49.493Z,95252.75
2018-03-02T04:57:17.050Z,95257.58
2018-03-02T04:59:44.570Z,95250.96
2018-03-02T05:02:12.249Z,95245.52
2018-03-02T05:04:39.767Z,95238.44
2018-03-02T05:07:07.339Z,95231.70
2018-03-02T05:09:34.892Z,95220.67
2018-03-02T05:12:02.407Z,95215.96
2018-03-02T05:14:30.150Z,95215.41
2018-03-02T05:16:57.664Z,95223.45
2018-03-02T05:19:25.186Z,95211.05
2018-03-02T05:21:52.849Z,95221.43
2018-03-02T05:24:20.377Z,95211.80
2018-03-02T05:26:47.938Z,95214.03
2018-03-02T05:29:15.479Z,95220.13
2018-03-02T05:31:43.002Z,95207.89
2018-03-02T05:34:10.548Z,95200.07
2018-03-02T05:36:38.307Z,95204.13
2018-03-02T05:39:06.153Z,95207.94
2018-03-02T05:41:33.671Z,95185.45
2018-03-02T05:44:01.209Z,95183.67
2018-03-02T05:46:28.762Z,95203.39
2018-03-02T05:48:56.287Z,95198.11
2018-03-02T05:51:23.991Z,95187.42
2018-03-02T05:53:51.505Z,95175.11
2018-03-02T05:56:19.025Z,95184.48
2018-03-02T05:58:46.582Z,95186.05
2018-03-02T06:01:14.102Z,95177.69
2018-03-02T06:03:41.677Z,95175.23
2018-03-02T06:06:09.201Z,95176.93
2018-03-02T06:08:36.770Z,95177.60
2018-03-02T06:11:04.322Z,95186.41
2018-03-02T06:13:31.839Z,95188.48
2018-03-02T06:15:59.650Z,95177.74
2018-03-02T06:18:27.181Z,95177.55
2018-03-02T06:20:54.703Z,95174.10
2018-03-02T06:23:22.261Z,95174.74
2018-03-02T06:25:49.790Z,95178.20
2018-03-02T06:28:17.366Z,95166.16
2018-03-02T06:30:44.881Z,95160.31
2018-03-02T06:33:12.406Z,95164.12
2018-03-02T06:35:39.954Z,95169.70
2018-03-02T06:38:07.474Z,95157.96
2018-03-02T06:40:35.036Z,95164.95
2018-03-02T06:43:02.554Z,95168.74
2018-03-02T06:45:30.131Z,95160.37
2018-03-02T06:47:57.694Z,95164.64
2018-03-02T06:50:25.214Z,95172.64
2018-03-02T06:52:52.992Z,95160.56
2018-03-02T06:55:20.510Z,95162.26
2018-03-02T06:57:48.030Z,95161.25
2018-03-02T07:00:15.593Z,95158.30
2018-03-02T07:02:43.109Z,95155.17
2018-03-02T07:05:11.030Z,95156.75
2018-03-02T07:07:38.552Z,95150.82
2018-03-02T07:10:06.072Z,95152.50
2018-03-02T07:12:33.629Z,95152.41
2018-03-02T07:15:01.146Z,95151.52
2018-03-02T07:17:29.034Z,95145.09
2018-03-02T07:19:56.553Z,95152.69
2018-03-02T07:22:24.152Z,95156.17
2018-03-02T07:24:51.696Z,95155.77
2018-03-02T07:27:19.219Z,95149.75
2018-03-02T07:29:46.933Z,95156.18
2018-03-02T07:32:14.456Z,95158.59
2018-03-02T07:34:41.990Z,95154.17
2018-03-02T07:37:09.530Z,95148.20
2018-03-02T07:39:37.050Z,95142.86
2018-03-02T07:42:04.834Z,95140.72
2018-03-02T07:44:32.353Z,95132.88
2018-03-02T07:46:59.870Z,95136.72
2018-03-02T07:49:27.742Z,95124.70
2018-03-02T07:51:55.264Z,95118.08
2018-03-02T07:54:23.133Z,95109.64
2018-03-02T07:56:50.925Z,95106.28
2018-03-02T07:59:18.447Z,95101.86
2018-03-02T08:01:45.998Z,95100.38
2018-03-02T08:04:13.519Z,95096.95
2018-03-02T08:06:41.346Z,95103.95
2018-03-02T08:09:08.897Z,95097.53
2018-03-02T08:11:36.410Z,95103.84
2018-03-02T08:14:03.965Z,95106.01
2018-03-02T08:16:31.490Z,95106.41
2018-03-02T08:18:59.265Z,95106.00
2018-03-02T08:21:26.794Z,95107.89
2018-03-02T08:23:54.305Z,95104.31
2018-03-02T08:26:21.890Z,95096.80
2018-03-02T08:28:49.410Z,95097.66
2018-03-02T08:31:17.093Z,95100.67
2018-03-02T08:33:44.622Z,95107.32
2018-03-02T08:36:12.141Z,95114.61
2018-03-02T08:38:39.682Z,95104.98
2018-03-02T08:41:07.203Z,95103.03
2018-03-02T08:43:34.772Z,95105.05
2018-03-02T08:46:02.290Z,95101.16
2018-03-02T08:48:29.814Z,95105.02
2018-03-02T08:50:57.366Z,95104.62
2018-03-02T08:53:24.887Z,95093.18
2018-03-02T08:55:52.848Z,95102.73
2018-03-02T08:58:20.380Z,95102.45
2018-03-02T09:00:48.113Z,95094.80
2018-03-02T09:03:15.662Z,95100.97
2018-03-02T09:05:43.194Z,95098.38
2018-03-02T09:08:10.915Z,95093.41
2018-03-02T09:10:38.434Z,95086.15
2018-03-02T09:13:05.958Z,95087.75
2018-03-02T09:15:33.506Z,95083.81
2018-03-02T09:18:01.026Z,95074.78
2018-03-02T09:20:28.736Z,95076.34
2018-03-02T09:22:56.254Z,95071.55
2018-03-02T09:25:23.779Z,95069.84
2018-03-02T09:27:51.371Z,95065.28
2018-03-02T09:30:18.906Z,95071.63
2018-03-02T09:32:46.630Z,95074.14
2018-03-02T09:35:14.153Z,95072.47
2018-03-02T09:37:41.677Z,95073.42
2018-03-02T09:40:09.214Z,95069.37
2018-03-02T09:42:36.747Z,95077.77
2018-03-02T09:45:04.637Z,95072.58
2018-03-02T09:47:32.154Z,95079.23
2018-03-02T09:49:59.738Z,95083.64
2018-03-02T09:52:27.295Z,95082.34
2018-03-02T09:54:54.814Z,95084.05
2018-03-02T09:57:22.674Z,95081.12
2018-03-02T09:59:50.206Z,95082.74
2018-03-02T10:02:17.726Z,95084.75
2018-03-02T10:04:45.303Z,95087.51
2018-03-02T10:07:13.816Z,95083.77
2018-03-02T10:09:41.518Z,95078.83
2018-03-02T10:12:09.140Z,95081.52
2018-03-02T10:14:36.688Z,95079.39
2018-03-02T10:17:04.238Z,95083.52
2018-03-02T10:19:31.824Z,95080.97
2018-03-02T10:21:59.684Z,95075.03
2018-03-02T10:24:27.345Z,95081.34
2018-03-02T10:26:54.874Z,95077.67
2018-03-02T10:29:22.670Z,95078.05
2018-03-02T10:31:50.187Z,95079.52
2018-03-02T10:34:17.871Z,95072.02
2018-03-02T10:36:45.528Z,95077.87
2018-03-02T10:39:13.047Z,95080.16
2018-03-02T10:41:40.598Z,95080.23
2018-03-02T10:44:08.115Z,95082.91
2018-03-02T10:46:35.673Z,95075.29
2018-03-02T10:49:03.193Z,95087.80
2018-03-02T10:51:30.714Z,95091.94
2018-03-02T10:53:58.259Z,95079.06
2018-03-02T10:56:25.774Z,95084.39
2018-03-02T10:58:53.565Z,95077.14
2018-03-02T11:01:26.003Z,95076.89
2018-03-02T11:04:01.132Z,95074.81
2018-03-02T11:06:28.652Z,95075.27
2018-03-02T11:08:56.167Z,95075.87
2018-03-02T11:11:23.716Z,95071.02
2018-03-02T11:13:51.314Z,95073.47
2018-03-02T11:16:19.277Z,95070.95
2018-03-02T11:18:46.794Z,95076.52
2018-03-02T11:21:14.301Z,95073.96
2018-03-02T11:23:41.841Z,95077.73
2018-03-02T11:26:09.370Z,95090.41
2018-03-02T11:28:37.174Z,95093.41
2018-03-02T11:31:04.695Z,95098.71
2018-03-02T11:33:32.382Z,95106.97
2018-03-02T11:35:59.951Z,95113.72
2018-03-02T11:38:27.469Z,95118.05
2018-03-02T11:40:55.373Z,95123.56
2018-03-02T11:43:22.921Z,95126.89
2018-03-02T11:45:50.438Z,95142.45
2018-03-02T11:48:17.980Z,95141.42
2018-03-02T11:50:45.506Z,95142.07
2018-03-02T11:53:13.287Z,95144.91
2018-03-02T11:55:41.189Z,95154.97
2018-03-02T11:58:08.723Z,95151.39
2018-03-02T12:00:36.287Z,95145.25
2018-03-02T12:03:03.802Z,95158.66
2018-03-02T12:05:31.486Z,95154.50
2018-03-02T12:07:59.008Z,95164.78
2018-03-02T12:10:26.523Z,95156.34
2018-03-02T12:12:54.097Z,95159.92
2018-03-02T12:15:21.617Z,95168.05
2018-03-02T12:17:49.175Z,95177.70
2018-03-02T12:20:16.705Z,95176.17
2018-03-02T12:22:44.249Z,95175.27
2018-03-02T12:25:11.801Z,95174.78
2018-03-02T12:27:39.334Z,95173.13
2018-03-02T12:30:07.193Z,95176.48
2018-03-02T12:32:34.707Z,95175.09
2018-03-02T12:35:02.306Z,95187.55
2018-03-02T12:37:29.942Z,95186.88
2018-03-02T12:39:57.639Z,95182.05
2018-03-02T12:42:25.289Z,95186.77
2018-03-02T12:44:52.818Z,95189.64
2018-03-02T12:47:20.392Z,95197.14
2018-03-02T12:49:48.092Z,95200.05
2018-03-02T12:52:16.462Z,95201.63
2018-03-02T12:54:44.115Z,95202.80
2018-03-02T12:57:11.642Z,95201.16
2018-03-02T12:59:39.206Z,95205.08
2018-03-02T13:02:06.832Z,95201.41
2018-03-02T13:04:34.568Z,95196.16
2018-03-02T13:07:02.280Z,95187.23
2018-03-02T13:09:29.946Z,95194.85
2018-03-02T13:11:57.656Z,95200.98
2018-03-02T13:14:25.245Z,95202.57
2018-03-02T13:16:52.866Z,95204.69
2018-03-02T13:19:20.641Z,95204.33
2018-03-02T13:21:48.373Z,95202.39
2018-03-02T13:24:16.194Z,95204.81
2018-03-02T13:29:47.733Z,95204.18
2018-03-02T13:32:15.811Z,95190.71
2018-03-02T13:34:55.658Z,95194.27
2018-03-02T13:37:23.321Z,95193.10
2018-03-02T13:40:03.168Z,95211.42
2018-03-02T13:42:31.136Z,95222.95
2018-03-02T13:44:58.792Z,95215.80
2018-03-02T13:47:36.482Z,95227.97
2018-03-02T13:50:08.222Z,95231.97
2018-03-02T13:52:36.081Z,95233.16
2018-03-02T13:55:03.642Z,95229.47
2018-03-02T13:57:43.155Z,95232.73
2018-03-02T14:00:10.848Z,95235.12
2018-03-02T14:02:50.422Z,95229.45
2018-03-02T14:05:18.168Z,95242.81
2018-03-02T14:07:46.052Z,95247.91
2018-03-02T14:10:14.119Z,95250.60
2018-03-02T14:12:41.885Z,95253.00
2018-03-02T14:15:09.753Z,95247.80
2018-03-02T14:17:37.546Z,95256.16
2018-03-02T14:20:05.489Z,95253.39
2018-03-02T14:22:33.353Z,95253.08
2018-03-02T14:25:01.244Z,95262.84
2018-03-02T14:27:30.110Z,95267.11
2018-03-02T14:29:57.874Z,95260.71
2018-03-02T14:32:25.738Z,95267.22
2018-03-02T14:34:53.817Z,95270.72
2018-03-02T14:37:21.676Z,95266.97
2018-03-02T14:39:49.667Z,95269.02
2018-03-02T14:42:17.614Z,95269.82
2018-03-02T14:44:45.583Z,95272.23
2018-03-02T14:47:13.450Z,95269.67
2018-03-02T14:49:41.264Z,95272.94
2018-03-02T14:52:10.080Z,95276.37
2018-03-02T14:54:37.978Z,95271.69
2018-03-02T14:57:05.836Z,95281.78
2018-03-02T14:59:33.708Z,95278.23
2018-03-02T15:02:01.572Z,95284.58
2018-03-02T15:04:30.381Z,95294.22
2018-03-02T15:06:58.406Z,95288.21
2018-03-02T15:09:26.501Z,95299.66
2018-03-02T15:11:54.468Z,95291.38
2018-03-02T15:14:22.269Z,95286.01
2018-03-02T15:16:51.123Z,95297.00
2018-03-02T15:19:18.990Z,95302.53
2018-03-02T15:21:47.061Z,95302.30
2018-03-02T15:24:14.996Z,95315.41
2018-03-02T15:26:42.796Z,95314.97
2018-03-02T15:29:10.867Z,95314.02
2018-03-02T15:31:38.630Z,95319.44
2018-03-02T15:34:06.606Z,95317.34
2018-03-02T15:36:34.260Z,95321.06
2018-03-02T15:39:02.919Z,95321.59
2018-03-02T15:41:31.662Z,95321.69
2018-03-02T15:43:59.395Z,95329.34
2018-03-02T15:46:27.261Z,95338.38
2018-03-02T15:48:55.538Z,95337.79
2018-03-02T15:51:23.404Z,95340.80
2018-03-02T15:53:51.168Z,95344.84
2018-03-02T15:56:18.928Z,95349.51
2018-03-02T15:58:46.838Z,95352.30
2018-03-02T16:01:14.665Z,95361.30
2018-03-02T16:03:42.430Z,95354.45
2018-03-02T16:06:10.808Z,95357.01
2018-03-02T16:08:38.776Z,95363.13
2018-03-02T16:11:06.642Z,95362.03
2018-03-02T16:13:34.876Z,95364.91
2018-03-02T16:16:02.785Z,95371.56
2018-03-02T16:18:31.896Z,95370.72
2018-03-02T16:21:00.568Z,95372.05
2018-03-02T16:23:28.611Z,95370.22
2018-03-02T16:25:56.504Z,95378.62
2018-03-02T16:28:24.477Z,95380.11
2018-03-02T16:30:52.338Z,95379.05
2018-03-02T16:33:20.998Z,95387.89
2018-03-02T16:35:48.788Z,95389.31
2018-03-02T16:38:16.855Z,95398.73
2018-03-02T16:40:44.628Z,95397.59
2018-03-02T16:43:12.389Z,95397.94
2018-03-02T16:45:40.644Z,95399.25
2018-03-02T16:48:08.488Z,95400.52
2018-03-02T16:50:36.192Z,95402.91
2018-03-02T16:53:04.058Z,95406.16
2018-03-02T16:55:32.452Z,95407.20
2018-03-02T16:58:00.509Z,95404.18
2018-03-02T17:00:28.482Z,95406.23
2018-03-02T17:02:56.384Z,95411.33
2018-03-02T17:05:24.415Z,95418.73
2018-03-02T17:07:52.366Z,95425.42
2018-03-02T17:10:20.250Z,95431.69
2018-03-02T17:12:47.914Z,95430.86
2018-03-02T17:15:15.880Z,95431.25
2018-03-02T17:17:45.082Z,95434.10
2018-03-02T17:20:13.055Z,95436.34
2018-03-02T17:22:40.923Z,95442.41
2018-03-02T17:25:08.785Z,95440.01
2018-03-02T17:27:36.646Z,95441.28
2018-03-02T17:30:04.411Z,95444.10
2018-03-02T17:32:32.463Z,95457.19
2018-03-02T17:35:00.146Z,95454.09
2018-03-02T17:37:28.027Z,95445.64
2018-03-02T17:39:55.756Z,95452.55
2018-03-02T17:42:23.644Z,95453.45
2018-03-02T17:44:51.610Z,95454.04
2018-03-02T17:47:19.886Z,95452.17
2018-03-02T17:49:49.706Z,95461.47
2018-03-02T17:52:18.479Z,95460.52
2018-03-02T17:54:47.172Z,95461.30
2018-03-02T17:57:15.141Z,95468.02
2018-03-02T17:59:43.008Z,95469.94
2018-03-02T18:02:11.365Z,95470.35
2018-03-02T18:04:39.251Z,95468.16
2018-03-02T18:07:07.118Z,95468.11
2018-03-02T18:09:35.191Z,95465.00
2018-03-02T18:12:03.159Z,95465.72
2018-03-02T18:14:31.025Z,95473.31
2018-03-02T18:16:58.955Z,95472.37
2018-03-02T18:19:26.760Z,95479.80
2018-03-02T18:21:54.957Z,95483.13
2018-03-02T18:24:23.688Z,95483.21
2018-03-02T18:26:51.791Z,95491.27
2018-03-02T18:29:19.688Z,95495.30
2018-03-02T18:31:47.626Z,95492.31
2018-03-02T18:34:16.336Z,95484.62
2018-03-02T18:36:44.313Z,95487.51
2018-03-02T18:39:12.148Z,95486.17
2018-03-02T18:41:40.218Z,95484.06
2018-03-02T18:44:08.085Z,95481.96
2018-03-02T18:46:36.053Z,95477.48
2018-03-02T18:49:04.027Z,95471.91
2018-03-02T18:51:31.865Z,95474.88
2018-03-02T18:54:00.472Z,95467.22
2018-03-02T18:56:28.340Z,95478.75
2018-03-02T18:58:56.119Z,95476.52
2018-03-02T19:01:24.072Z,95476.01
2018-03-02T19:03:52.044Z,95470.06
2018-03-02T19:06:20.113Z,95471.38
2018-03-02T19:08:48.348Z,95470.93
2018-03-02T19:11:17.380Z,95470.73
2018-03-02T19:13:45.355Z,95469.98
2018-03-02T19:16:13.177Z,95470.48
2018-03-02T19:18:41.697Z,95472.26
2018-03-02T19:21:09.973Z,95472.59
2018-03-02T19:23:37.942Z,95473.28
2018-03-02T19:26:05.893Z,95471.16
2018-03-02T19:28:33.986Z,95477.72
2018-03-02T19:31:02.550Z,95469.08
2018-03-02T19:33:30.433Z,95474.77
2018-03-02T19:35:58.503Z,95476.13
2018-03-02T19:38:26.644Z,95479.16
2018-03-02T19:40:54.544Z,95474.53
2018-03-02T19:43:22.717Z,95481.94
2018-03-02T19:45:50.686Z,95481.63
2018-03-02T19:48:18.657Z,95484.16
2018-03-02T19:50:46.682Z,95478.50
2018-03-02T19:53:14.574Z,95479.77
2018-03-02T19:55:42.664Z,95485.90
2018-03-02T19:58:11.248Z,95482.77
2018-03-02T20:00:39.217Z,95480.73
2018-03-02T20:03:07.184Z,95485.11
2018-03-02T20:05:35.215Z,95484.09
2018-03-02T20:08:03.056Z,95479.13
2018-03-02T20:10:31.768Z,95482.06
2018-03-02T20:12:59.675Z,95482.44
2018-03-02T20:15:28.451Z,95491.41
2018-03-02T20:17:56.331Z,95487.86
2018-03-02T20:20:24.258Z,95494.91
2018-03-02T20:22:52.191Z,95494.83
2018-03-02T20:25:20.032Z,95493.80
2018-03-02T20:27:48.419Z,95503.27
2018-03-02T20:30:16.349Z,95503.92
2018-03-02T20:32:44.263Z,95489.06
2018-03-02T20:35:12.189Z,95500.34
2018-03-02T20:37:40.291Z,95492.62
2018-03-02T20:40:09.176Z,95499.83
2018-03-02T20:42:37.031Z,95502.13
2018-03-02T20:45:05.544Z,95503.64
2018-03-02T20:47:34.413Z,95508.42
2018-03-02T20:50:02.283Z,95508.20
2018-03-02T20:52:30.321Z,95508.70
2018-03-02T20:54:58.322Z,95494.73
2018-03-02T20:57:26.189Z,95495.30
2018-03-02T20:59:54.749Z,95495.80
2018-03-02T21:02:22.637Z,95493.45
2018-03-02T21:04:50.606Z,95493.23
2018-03-02T21:07:18.575Z,95493.95
2018-03-02T21:09:46.862Z,95491.74
2018-03-02T21:12:14.729Z,95480.97
2018-03-02T21:14:42.583Z,95492.98
2018-03-02T21:17:10.554Z,95491.30
2018-03-02T21:19:38.420Z,95490.23
2018-03-02T21:22:06.388Z,95494.94
2018-03-02T21:24:34.767Z,95490.81
2018-03-02T21:27:03.043Z,95488.47
2018-03-02T21:29:30.914Z,95490.95
2018-03-02T21:31:59.594Z,95493.88
2018-03-02T21:34:27.801Z,95489.02
2018-03-02T21:36:55.650Z,95483.32
2018-03-02T21:39:24.014Z,95477.27
2018-03-02T21:41:51.982Z,95478.90
2018-03-02T21:44:19.849Z,95486.30
2018-03-02T21:46:47.587Z,95479.95
2018-03-02T21:49:15.403Z,95481.59
2018-03-02T21:51:43.156Z,95482.69
2018-03-02T21:54:11.058Z,95480.95
2018-03-02T21:56:39.029Z,95476.91
2018-03-02T21:59:07.053Z,95491.88
2018-03-02T22:01:34.915Z,95484.49
2018-03-02T22:04:02.783Z,95479.31
2018-03-02T22:06:30.558Z,95474.44
2018-03-02T22:08:58.346Z,95466.53
2018-03-02T22:11:26.576Z,95472.23
2018-03-02T22:13:54.247Z,95475.70
2018-03-02T22:16:22.122Z,95464.84
2018-03-02T22:18:49.797Z,95468.08
2018-03-02T22:21:17.372Z,95460.80
2018-03-02T22:23:45.297Z,95462.59
2018-03-02T22:26:12.971Z,95474.00
2018-03-02T22:28:40.506Z,95498.63
2018-03-02T22:31:08.135Z,95489.37
2018-03-02T22:33:35.901Z,95487.73
2018-03-02T22:36:03.714Z,95475.98
2018-03-02T22:38:31.379Z,95470.19
2018-03-02T22:40:59.245Z,95476.11
2018-03-02T22:43:27.124Z,95474.67
2018-03-02T22:45:54.771Z,95474.55
2018-03-02T22:48:22.534Z,95467.30
2018-03-02T22:50:50.166Z,95466.05
2018-03-02T22:53:17.812Z,95469.69
2018-03-02T22:55:45.520Z,95467.45
2018-03-02T22:58:13.386Z,95469.27
2018-03-02T23:00:41.686Z,95471.08
2018-03-02T23:03:09.410Z,95473.63
2018-03-02T23:05:37.014Z,95473.67
2018-03-02T23:08:04.808Z,95461.47
2018-03-02T23:10:32.517Z,95459.75
2018-03-02T23:13:00.474Z,95461.67
2018-03-02T23:15:28.307Z,95467.28
2018-03-02T23:17:56.707Z,95469.94
2018-03-02T23:20:24.306Z,95474.03
2018-03-02T23:22:52.686Z,95468.34
2018-03-02T23:25:21.510Z,95468.27
2018-03-02T23:27:49.414Z,95470.28
2018-03-02T23:30:17.188Z,95468.89
2018-03-02T23:32:44.962Z,95466.83
2018-03-02T23:35:12.499Z,95479.64
2018-03-02T23:37:40.455Z,95479.08
2018-03-02T23:40:08.144Z,95475.02
2018-03-02T23:42:35.671Z,95464.84
2018-03-02T23:45:03.463Z,95472.28
2018-03-02T23:47:30.998Z,95468.00
2018-03-02T23:49:58.561Z,95469.94
2018-03-02T23:52:28.806Z,95466.16
2018-03-02T23:54:56.390Z,95461.39
2018-03-02T23:57:23.982Z,95469.64
2018-03-02T23:59:52.235Z,95456.86
